Terminal Aerodrome Forecast
Issued by NWS Portland, OR

Home | Current Version | Previous Version | Text Only | Print | Product List | Glossary On
Versions: 1 2 3 4 5 6 7 8 9 10 11 12 13 14 15 16
000
FTUS46 KPQR 251127
TAFTTD
TAF
KTTD 251127Z 2512/2612 00000KT P6SM SKC
     FM251500 VRB03KT P6SM BKN015
     FM251800 VRB03KT P6SM FEW020
     FM252100 28004KT P6SM SKC=

USA.gov is the U.S. government's official web portal to all federal, state and local government web resources and services.